createdAt,value
2023-03-04T00:02:24.253Z,101266.09
2023-03-04T00:07:24.859Z,101250.00
2023-03-04T00:12:24.303Z,101262.06
2023-03-04T00:17:26.051Z,101255.88
2023-03-04T00:22:27.349Z,101249.72
2023-03-04T00:27:27.508Z,101254.78
2023-03-04T00:32:28.246Z,101255.75
2023-03-04T00:37:29.284Z,101252.34
2023-03-04T00:42:29.919Z,101246.09
2023-03-04T00:47:32.146Z,101249.38
2023-03-04T00:52:41.538Z,101260.09
2023-03-04T00:57:43.857Z,101260.03
2023-03-04T01:02:45.135Z,101253.41
2023-03-04T01:07:44.876Z,101258.44
2023-03-04T01:12:46.017Z,101253.50
2023-03-04T01:17:44.889Z,101252.69
2023-03-04T01:22:46.731Z,101250.69
2023-03-04T01:27:46.919Z,101246.09
2023-03-04T01:32:47.183Z,101247.81
2023-03-04T01:37:50.889Z,101243.84
2023-03-04T01:42:51.600Z,101243.66
2023-03-04T01:47:50.041Z,101243.38
2023-03-04T01:52:50.046Z,101236.56
2023-03-04T01:57:52.795Z,101225.31
2023-03-04T02:03:03.159Z,101211.41
2023-03-04T02:08:05.060Z,101214.13
2023-03-04T02:13:09.386Z,101217.00
2023-03-04T02:18:18.527Z,101214.63
2023-03-04T02:23:25.136Z,101216.09
2023-03-04T02:28:26.623Z,101204.72
2023-03-04T02:33:27.906Z,101207.78
2023-03-04T02:38:29.952Z,101215.69
2023-03-04T02:43:31.676Z,101223.41
2023-03-04T02:48:30.080Z,101218.59
2023-03-04T02:53:38.900Z,101202.47
2023-03-04T02:58:52.645Z,101203.84
2023-03-04T03:03:52.655Z,101198.19
2023-03-04T03:08:51.698Z,101193.25
2023-03-04T03:13:53.734Z,101193.28
2023-03-04T03:18:54.216Z,101199.03
2023-03-04T03:23:57.971Z,101200.97
2023-03-04T03:28:56.398Z,101207.06
2023-03-04T03:33:57.793Z,101206.88
2023-03-04T03:39:20.059Z,101201.13
2023-03-04T03:44:22.102Z,101202.44
2023-03-04T03:49:21.824Z,101208.16
2023-03-04T03:54:21.882Z,101194.59
2023-03-04T03:59:26.567Z,101189.88
2023-03-04T04:04:24.477Z,101197.38
2023-03-04T04:09:26.472Z,101186.50
2023-03-04T04:14:26.325Z,101188.09
2023-03-04T04:19:27.597Z,101191.94
2023-03-04T04:24:26.615Z,101190.72
2023-03-04T04:29:27.963Z,101204.22
2023-03-04T04:34:29.711Z,101199.91
2023-03-04T04:39:39.208Z,101211.19
2023-03-04T04:44:39.185Z,101219.66
2023-03-04T04:49:36.557Z,101218.91
2023-03-04T04:54:35.289Z,101221.56
2023-03-04T04:59:34.176Z,101210.97
2023-03-04T05:04:35.441Z,101217.94
2023-03-04T05:09:34.925Z,101219.38
2023-03-04T05:14:35.918Z,101210.69
2023-03-04T05:19:37.719Z,101212.00
2023-03-04T05:24:39.679Z,101212.88
2023-03-04T05:29:44.939Z,101233.06
2023-03-04T05:34:43.449Z,101244.25
2023-03-04T05:39:41.734Z,101242.97
2023-03-04T05:44:42.928Z,101234.97
2023-03-04T05:49:47.844Z,101243.16
2023-03-04T05:54:46.306Z,101246.34
2023-03-04T05:59:44.551Z,101244.41
2023-03-04T06:04:43.844Z,101234.34
2023-03-04T06:09:45.247Z,101251.66
2023-03-04T06:14:43.268Z,101257.44
2023-03-04T06:19:43.540Z,101259.41
2023-03-04T06:24:42.456Z,101260.06
2023-03-04T06:29:41.948Z,101270.56
2023-03-04T06:34:41.501Z,101278.44
2023-03-04T06:39:40.544Z,101281.34
2023-03-04T06:44:42.721Z,101277.34
2023-03-04T06:49:42.069Z,101279.09
2023-03-04T06:54:44.268Z,101277.41
2023-03-04T06:59:44.584Z,101270.59
2023-03-04T07:04:46.676Z,101273.63
2023-03-04T07:09:45.252Z,101272.56
2023-03-04T07:14:46.289Z,101261.38
2023-03-04T07:19:48.491Z,101258.75
2023-03-04T07:24:53.439Z,101258.63
2023-03-04T07:29:51.415Z,101252.97
2023-03-04T07:34:49.802Z,101252.78
2023-03-04T07:39:50.901Z,101253.44
2023-03-04T07:44:53.364Z,101248.97
2023-03-04T07:49:53.704Z,101247.53
2023-03-04T07:54:52.438Z,101237.25
2023-03-04T07:59:52.059Z,101235.88
2023-03-04T08:04:52.779Z,101231.47
2023-03-04T08:09:55.437Z,101220.88
2023-03-04T08:14:55.181Z,101224.63
2023-03-04T08:19:57.607Z,101223.41
2023-03-04T08:24:56.089Z,101220.94
2023-03-04T08:29:57.963Z,101215.03
2023-03-04T08:34:59.099Z,101198.81
2023-03-04T08:40:01.884Z,101200.66
2023-03-04T08:45:04.321Z,101206.28
2023-03-04T08:50:13.832Z,101192.03
2023-03-04T08:55:12.520Z,101198.72
2023-03-04T09:00:12.941Z,101190.63
2023-03-04T09:05:14.675Z,101177.88
2023-03-04T09:10:16.080Z,101178.91
2023-03-04T09:15:16.841Z,101176.59
2023-03-04T09:20:17.697Z,101165.22
2023-03-04T09:25:19.036Z,101171.53
2023-03-04T09:30:19.131Z,101164.63
2023-03-04T09:35:19.231Z,101159.31
2023-03-04T09:40:19.572Z,101151.34
2023-03-04T09:45:27.719Z,101139.66
2023-03-04T09:50:24.918Z,101136.81
2023-03-04T09:55:36.290Z,101126.41
2023-03-04T10:00:39.709Z,101121.38
2023-03-04T10:05:40.178Z,101124.31
2023-03-04T10:10:39.934Z,101126.81
2023-03-04T10:15:44.388Z,101115.97
2023-03-04T10:20:50.512Z,101103.84
2023-03-04T10:26:02.646Z,101092.13
2023-03-04T10:31:11.250Z,101087.22
2023-03-04T10:36:24.953Z,101078.72
2023-03-04T10:41:24.982Z,101067.47
2023-03-04T10:46:25.270Z,101060.09
2023-03-04T10:51:27.660Z,101046.47
2023-03-04T10:56:34.310Z,101042.09
2023-03-04T11:01:35.721Z,101021.97
2023-03-04T11:06:40.217Z,101017.72
2023-03-04T11:11:44.904Z,101008.75
2023-03-04T11:16:48.277Z,101007.78
2023-03-04T11:21:48.662Z,100990.78
2023-03-04T11:26:51.670Z,100988.19
2023-03-04T11:32:02.930Z,100975.25
2023-03-04T11:37:13.771Z,100972.97
2023-03-04T11:42:45.710Z,100966.56
2023-03-04T11:47:57.319Z,100959.75
2023-03-04T11:53:00.593Z,100961.97
2023-03-04T11:57:58.737Z,100957.59
2023-03-04T12:02:59.424Z,100952.31
2023-03-04T12:08:06.434Z,100945.50
2023-03-04T12:13:17.088Z,100946.00
2023-03-04T12:18:16.122Z,100944.84
2023-03-04T12:23:23.427Z,100933.66
2023-03-04T12:28:22.073Z,100921.25
2023-03-04T12:33:27.162Z,100912.81
2023-03-04T12:38:59.515Z,100909.31
2023-03-04T12:44:00.028Z,100901.91
2023-03-04T12:49:01.453Z,100902.03
2023-03-04T12:54:11.934Z,100893.31
2023-03-04T12:59:22.998Z,100884.69
2023-03-04T13:04:44.912Z,100873.66
2023-03-04T13:09:53.447Z,100852.22
2023-03-04T13:15:06.886Z,100853.25
2023-03-04T13:20:26.281Z,100847.00
2023-03-04T13:25:38.154Z,100844.47
2023-03-04T13:30:38.270Z,100833.59
2023-03-04T13:36:03.093Z,100829.97
2023-03-04T13:41:01.614Z,100826.09
2023-03-04T13:46:15.628Z,100814.56
2023-03-04T13:56:51.471Z,100801.91
2023-03-04T14:02:01.093Z,100794.66
2023-03-04T14:07:00.125Z,100787.19
2023-03-04T14:12:16.283Z,100781.25
2023-03-04T14:17:16.917Z,100769.47
2023-03-04T14:22:21.303Z,100763.63
2023-03-04T14:27:47.363Z,100758.06
2023-03-04T14:32:48.724Z,100755.91
2023-03-04T14:37:50.488Z,100744.63
2023-03-04T14:42:51.474Z,100746.16
2023-03-04T14:47:51.972Z,100735.16
2023-03-04T14:53:06.927Z,100735.25
2023-03-04T14:58:09.063Z,100735.94
2023-03-04T15:03:22.800Z,100729.75
2023-03-04T15:08:28.050Z,100729.19
2023-03-04T15:13:39.402Z,100723.00
2023-03-04T15:18:36.728Z,100721.72
2023-03-04T15:23:36.598Z,100718.72
2023-03-04T15:28:35.374Z,100710.81
2023-03-04T15:33:35.432Z,100713.00
2023-03-04T15:38:34.281Z,100709.72
2023-03-04T15:43:35.706Z,100697.19
2023-03-04T15:48:35.906Z,100704.72
2023-03-04T15:53:36.937Z,100694.06
2023-03-04T15:58:35.265Z,100692.88
2023-03-04T16:03:36.314Z,100689.59
2023-03-04T16:08:36.286Z,100686.38
2023-03-04T16:13:34.952Z,100687.31
2023-03-04T16:18:33.187Z,100688.97
2023-03-04T16:23:35.818Z,100696.31
2023-03-04T16:28:36.385Z,100692.72
2023-03-04T16:33:37.743Z,100703.25
2023-03-04T16:38:40.271Z,100703.88
2023-03-04T16:43:38.003Z,100708.31
2023-03-04T16:48:39.590Z,100704.91
2023-03-04T16:53:40.836Z,100699.34
2023-03-04T16:58:40.216Z,100715.31
2023-03-04T17:03:37.517Z,100708.94
2023-03-04T17:08:34.925Z,100705.13
2023-03-04T17:13:33.256Z,100703.84
2023-03-04T17:18:35.504Z,100705.28
2023-03-04T17:23:40.286Z,100698.28
2023-03-04T17:28:38.768Z,100700.69
2023-03-04T17:33:40.677Z,100704.63
2023-03-04T17:38:40.879Z,100710.13
2023-03-04T17:43:38.660Z,100720.88
2023-03-04T17:48:39.660Z,100709.13
2023-03-04T17:53:40.275Z,100711.22
2023-03-04T17:58:37.540Z,100706.38
2023-03-04T18:03:35.507Z,100707.69
2023-03-04T18:08:36.349Z,100702.22
2023-03-04T18:13:36.042Z,100701.91
2023-03-04T18:18:36.638Z,100708.34
2023-03-04T18:23:39.879Z,100697.50
2023-03-04T18:28:37.551Z,100708.72
2023-03-04T18:33:37.878Z,100706.16
2023-03-04T18:38:35.850Z,100704.28
2023-03-04T18:43:38.686Z,100703.88
2023-03-04T18:48:37.770Z,100706.72
2023-03-04T18:53:38.100Z,100706.97
2023-03-04T18:58:36.798Z,100703.03
2023-03-04T19:03:34.708Z,100701.34
2023-03-04T19:08:36.492Z,100714.75
2023-03-04T19:13:37.245Z,100710.19
2023-03-04T19:18:37.592Z,100710.94
2023-03-04T19:23:37.867Z,100703.50
2023-03-04T19:28:36.044Z,100710.56
2023-03-04T19:33:37.437Z,100707.44
2023-03-04T19:38:43.853Z,100716.16
2023-03-04T19:43:41.340Z,100718.19
2023-03-04T19:48:40.959Z,100720.56
2023-03-04T19:53:38.735Z,100727.72
2023-03-04T19:58:39.467Z,100717.72
2023-03-04T20:03:44.065Z,100717.06
2023-03-04T20:08:41.711Z,100720.41
2023-03-04T20:13:42.280Z,100718.34
2023-03-04T20:18:39.743Z,100729.66
2023-03-04T20:23:39.955Z,100730.22
2023-03-04T20:28:38.279Z,100727.97
2023-03-04T20:33:36.645Z,100734.31
2023-03-04T20:38:33.940Z,100727.25
2023-03-04T20:43:32.050Z,100730.94
2023-03-04T20:48:30.130Z,100730.72
2023-03-04T20:53:31.009Z,100719.75
2023-03-04T20:58:29.066Z,100716.13
2023-03-04T21:03:29.239Z,100720.94
2023-03-04T21:08:27.380Z,100713.44
2023-03-04T21:13:30.579Z,100702.91
2023-03-04T21:18:30.091Z,100706.81
2023-03-04T21:23:32.178Z,100705.06
2023-03-04T21:28:32.597Z,100697.28
2023-03-04T21:33:34.098Z,100701.41
2023-03-04T21:38:34.997Z,100686.13
2023-03-04T21:43:36.994Z,100695.31
2023-03-04T21:48:35.029Z,100685.41
2023-03-04T21:53:33.849Z,100685.44
2023-03-04T21:58:35.479Z,100683.66
2023-03-04T22:03:33.765Z,100686.69
2023-03-04T22:08:34.610Z,100682.63
2023-03-04T22:13:34.268Z,100685.53
2023-03-04T22:18:33.972Z,100676.03
2023-03-04T22:23:33.703Z,100674.91
2023-03-04T22:28:32.296Z,100669.44
2023-03-04T22:33:40.290Z,100667.13
2023-03-04T22:38:44.769Z,100658.81
2023-03-04T22:43:42.570Z,100661.53
2023-03-04T22:48:44.627Z,100658.28
2023-03-04T22:53:44.906Z,100647.09
2023-03-04T22:58:45.832Z,100644.72
2023-03-04T23:03:46.581Z,100645.16
2023-03-04T23:08:47.980Z,100642.59
2023-03-04T23:13:46.523Z,100643.25
2023-03-04T23:18:47.546Z,100643.66
2023-03-04T23:23:47.802Z,100651.19
2023-03-04T23:28:48.290Z,100641.09
2023-03-04T23:33:48.806Z,100633.97
2023-03-04T23:38:50.696Z,100636.19
2023-03-04T23:43:52.194Z,100637.13
2023-03-04T23:48:53.258Z,100647.25
2023-03-04T23:53:54.399Z,100643.78
2023-03-04T23:58:56.930Z,100637.97
